Time;durP1;ratioP1;P1;durP2;ratioP2;P2;SDS_P1;SDS_P2;PMS_P1;PMS_P2;Temp;Humidity;BMP_temperature;BMP_pressure;BME280_temperature;BME280_humidity;BME280_pressure;Samples;Min_cycle;Max_cycle;Signal;HPM_P1;HPM_P2
2023/01/07 00:01:20;;;;;;;9.73;5.07;;;;;;;5.35;84.40;101626.97;4968428;28;20083;-56
2023/01/07 00:03:46;;;;;;;6.55;4.35;;;;;;;5.36;84.22;101625.19;4967840;28;20099;-58
2023/01/07 00:06:19;;;;;;;8.93;5.30;;;;;;;5.34;84.30;101622.63;4968156;28;20197;-56
2023/01/07 00:08:45;;;;;;;;;;;;;;;5.28;84.90;101627.97;4971253;28;20519;-56
2023/01/07 00:11:15;;;;;;;9.20;5.63;;;;;;;5.32;84.73;101621.81;4969163;28;20061;-57
2023/01/07 00:13:40;;;;;;;11.40;5.72;;;;;;;5.36;84.82;101619.97;4971188;28;20103;-57
2023/01/07 00:16:09;;;;;;;9.02;5.13;;;;;;;5.36;84.27;101614.75;4970527;28;20118;-56
2023/01/07 00:18:35;;;;;;;10.23;5.30;;;;;;;5.35;84.41;101608.69;4973429;28;20490;-55
2023/01/07 00:21:03;;;;;;;10.50;5.65;;;;;;;5.33;84.23;101600.88;4975001;28;20118;-54
2023/01/07 00:23:30;;;;;;;6.18;3.30;;;;;;;5.32;84.65;101601.78;4974076;28;20649;-54
2023/01/07 00:26:01;;;;;;;12.63;5.18;;;;;;;5.29;84.69;101603.59;4972133;28;20092;-56
2023/01/07 00:28:27;;;;;;;8.35;5.25;;;;;;;5.26;84.57;101614.97;4971664;28;20075;-54
2023/01/07 00:30:58;;;;;;;12.73;5.85;;;;;;;5.24;84.74;101618.50;4973489;28;20086;-55
2023/01/07 00:33:27;;;;;;;15.33;7.40;;;;;;;5.22;84.85;101609.84;4971241;28;20118;-57
2023/01/07 00:36:03;;;;;;;13.02;5.97;;;;;;;5.19;84.74;101615.97;4970765;28;20495;-57
2023/01/07 00:38:29;;;;;;;8.48;5.07;;;;;;;5.18;84.83;101617.75;4969297;28;20123;-53
2023/01/07 00:40:55;;;;;;;12.77;5.88;;;;;;;5.16;84.91;101614.31;4965331;28;20130;-57
2023/01/07 00:43:21;;;;;;;10.05;5.60;;;;;;;5.16;84.81;101611.69;4967994;28;21341;-55
2023/01/07 00:45:46;;;;;;;13.07;6.70;;;;;;;5.13;84.96;101616.97;4970967;28;20146;-55
2023/01/07 00:48:12;;;;;;;12.32;6.40;;;;;;;5.13;84.87;101627.41;4970914;28;20087;-59
2023/01/07 00:50:38;;;;;;;11.98;6.63;;;;;;;5.11;85.01;101626.56;4972013;28;20099;-56
2023/01/07 00:53:04;;;;;;;8.68;6.32;;;;;;;5.09;84.80;101630.97;4964537;28;20105;-56
2023/01/07 00:55:29;;;;;;;20.77;6.28;;;;;;;5.05;84.82;101621.50;4969860;28;20190;-56
2023/01/07 00:57:55;;;;;;;11.82;6.25;;;;;;;5.03;84.89;101623.28;4968893;28;20103;-58
2023/01/07 01:00:22;;;;;;;16.13;8.00;;;;;;;4.99;85.40;101621.63;4969199;28;20465;-58
2023/01/07 01:02:49;;;;;;;11.13;6.63;;;;;;;4.99;85.26;101632.06;4969191;28;20652;-53
2023/01/07 01:05:14;;;;;;;12.50;6.95;;;;;;;4.98;85.41;101620.78;4970022;28;20071;-55
2023/01/07 01:07:40;;;;;;;15.35;7.07;;;;;;;4.99;85.23;101619.84;4967369;28;20085;-54
2023/01/07 01:10:09;;;;;;;14.75;8.98;;;;;;;4.98;85.09;101618.16;4965110;28;20182;-55
2023/01/07 01:12:35;;;;;;;13.80;8.07;;;;;;;4.96;85.33;101617.34;4963632;28;20105;-56
2023/01/07 01:15:06;;;;;;;12.80;6.50;;;;;;;4.97;85.13;101626.00;4972634;28;20550;-56
2023/01/07 01:17:31;;;;;;;11.85;7.13;;;;;;;4.93;85.18;101621.72;4973394;28;20099;-58
2023/01/07 01:19:57;;;;;;;16.15;8.23;;;;;;;4.94;85.48;101623.44;4974294;28;20079;-54
2023/01/07 01:22:22;;;;;;;17.38;8.10;;;;;;;4.94;85.56;101619.09;4973928;28;20099;-58
2023/01/07 01:24:49;;;;;;;14.75;8.48;;;;;;;4.95;85.37;101623.44;4969570;28;20083;-56
2023/01/07 01:27:15;;;;;;;9.07;5.30;;;;;;;4.96;85.40;101622.56;4971485;28;20094;-58
2023/01/07 01:29:40;;;;;;;21.35;8.73;;;;;;;4.96;85.66;101621.66;4970823;28;20087;-55
2023/01/07 01:32:06;;;;;;;18.63;8.85;;;;;;;4.97;85.85;101608.63;4969782;28;20091;-56
2023/01/07 01:34:31;;;;;;;10.52;5.80;;;;;;;4.98;85.75;101607.72;4967817;28;20079;-56
2023/01/07 01:36:57;;;;;;;16.77;8.38;;;;;;;5.00;85.57;101602.47;4968088;28;20127;-53
2023/01/07 01:39:22;;;;;;;19.27;9.95;;;;;;;4.99;85.72;101603.34;4968035;28;20083;-58
2023/01/07 01:41:48;;;;;;;18.42;9.50;;;;;;;5.00;85.69;101607.69;4968091;28;20079;-57
2023/01/07 01:44:37;;;;;;;20.65;9.45;;;;;;;4.98;85.52;101605.13;4971256;28;20095;-52
2023/01/07 01:47:09;;;;;;;17.88;9.77;;;;;;;4.97;85.67;101616.44;4968468;28;20083;-55
2023/01/07 01:49:39;;;;;;;12.60;7.85;;;;;;;4.96;85.53;101621.66;4964019;28;20484;-53
2023/01/07 01:52:15;;;;;;;16.60;8.27;;;;;;;4.93;85.92;101613.91;4970176;28;20086;-57
2023/01/07 01:54:45;;;;;;;18.75;9.35;;;;;;;4.90;85.88;101621.81;4970888;28;20113;-56
2023/01/07 01:57:11;;;;;;;16.67;8.77;;;;;;;4.88;85.70;101617.50;4971999;28;20586;-57
2023/01/07 01:59:41;;;;;;;16.42;8.93;;;;;;;4.84;85.76;101617.59;4968190;28;20086;-55
2023/01/07 02:02:07;;;;;;;19.35;9.57;;;;;;;4.84;86.16;101625.41;4970889;28;20075;-57
2023/01/07 02:04:33;;;;;;;16.30;8.63;;;;;;;4.81;85.85;101621.09;4969021;28;20079;-56
2023/01/07 02:07:10;;;;;;;18.83;10.15;;;;;;;4.78;85.79;101623.75;4970164;28;20114;-57
2023/01/07 02:09:36;;;;;;;20.48;10.45;;;;;;;4.77;86.06;101616.81;4973626;28;20182;-56
2023/01/07 02:12:25;;;;;;;14.93;8.88;;;;;;;4.74;85.98;101614.28;4966122;28;20076;-56
2023/01/07 02:15:13;;;;;;;17.10;8.90;;;;;;;4.73;86.29;101618.63;4972959;28;20075;-55
2023/01/07 02:18:06;;;;;;;24.40;10.18;;;;;;;4.73;86.31;101620.41;4962323;28;20099;-55
2023/01/07 02:20:45;;;;;;;21.70;9.77;;;;;;;4.76;85.85;101615.13;4969698;28;20090;-58
2023/01/07 02:23:22;;;;;;;19.80;9.00;;;;;;;4.79;86.09;101620.25;4964276;28;20095;-54
2023/01/07 02:26:24;;;;;;;19.10;10.05;;;;;;;4.83;85.99;101616.72;4964281;28;20089;-54
2023/01/07 02:29:14;;;;;;;17.60;9.68;;;;;;;4.85;85.62;101617.53;4966847;28;20102;-55
2023/01/07 02:32:01;;;;;;;20.42;9.90;;;;;;;4.87;85.94;101615.75;4964945;28;20136;-55
2023/01/07 02:34:32;;;;;;;18.13;8.93;;;;;;;4.91;85.51;101598.28;4971330;28;20110;-58
2023/01/07 02:37:00;;;;;;;15.15;7.43;;;;;;;4.94;85.55;101599.97;4967953;28;20106;-56
2023/01/07 02:39:44;;;;;;;21.15;10.48;;;;;;;4.96;85.37;101596.47;4965917;28;20087;-58
2023/01/07 02:42:21;;;;;;;21.13;10.25;;;;;;;5.02;85.59;101592.88;4963121;28;20082;-57
2023/01/07 02:45:14;;;;;;;21.08;10.77;;;;;;;5.05;85.51;101590.19;4967511;28;20075;-56
2023/01/07 02:47:53;;;;;;;20.77;10.27;;;;;;;5.11;85.33;101595.28;4959157;28;20071;-56
2023/01/07 02:50:19;;;;;;;17.05;7.93;;;;;;;5.13;85.27;101595.25;4968858;28;20083;-57
2023/01/07 02:52:45;;;;;;;20.73;10.52;;;;;;;5.15;85.25;101589.09;4962665;28;20110;-57
2023/01/07 02:55:26;;;;;;;20.98;11.07;;;;;;;5.18;85.33;101588.16;4966088;28;20562;-58
2023/01/07 02:58:14;;;;;;;24.35;11.68;;;;;;;5.23;85.22;101593.28;4971969;28;20095;-57
2023/01/07 03:00:51;;;;;;;22.05;12.20;;;;;;;5.24;85.10;101589.78;4971301;28;20071;-54
2023/01/07 03:03:35;;;;;;;22.70;11.43;;;;;;;5.25;85.32;101583.69;4963108;28;20160;-57
2023/01/07 03:06:33;;;;;;;20.83;10.63;;;;;;;5.24;85.07;101585.44;4968917;28;20083;-57
2023/01/07 03:09:02;;;;;;;18.50;10.63;;;;;;;5.26;85.28;101585.41;4964759;28;20091;-59
2023/01/07 03:11:40;;;;;;;17.85;9.65;;;;;;;5.25;85.04;101586.28;4971628;28;20083;-58
2023/01/07 03:14:18;;;;;;;19.48;10.02;;;;;;;5.23;85.03;101582.84;4971613;28;20827;-58
2023/01/07 03:16:59;;;;;;;18.35;10.57;;;;;;;5.21;84.96;101582.88;4977463;28;20523;-59
2023/01/07 03:19:29;;;;;;;23.55;11.07;;;;;;;5.22;85.10;101582.00;4970165;28;20129;-55
2023/01/07 03:21:58;;;;;;;21.83;10.82;;;;;;;5.25;84.96;101586.28;4969813;28;20080;-59
2023/01/07 03:24:25;;;;;;;20.48;10.10;;;;;;;5.26;84.98;101582.78;4963201;28;20711;-58
2023/01/07 03:26:55;;;;;;;18.83;9.98;;;;;;;5.25;84.85;101587.16;4972366;28;20071;-57
2023/01/07 03:29:22;;;;;;;12.43;5.88;;;;;;;5.23;84.36;101594.16;4966715;28;20137;-55
2023/01/07 03:32:01;;;;;;;16.80;9.38;;;;;;;5.19;84.48;101590.78;4971845;28;20154;-55
2023/01/07 03:34:28;;;;;;;15.98;9.38;;;;;;;5.20;84.10;101589.00;4972672;28;20091;-54
2023/01/07 03:37:03;;;;;;;19.65;9.40;;;;;;;5.15;84.13;101583.88;4969106;28;20106;-56
2023/01/07 03:39:30;;;;;;;17.52;9.65;;;;;;;5.12;84.24;101591.78;4968575;28;20086;-55
2023/01/07 03:44:41;;;;;;;18.80;10.27;;;;;;;5.05;84.12;101579.78;4968553;28;20086;-55
2023/01/07 03:47:07;;;;;;;18.23;8.88;;;;;;;5.08;84.06;101586.66;4965586;28;20083;-56
2023/01/07 03:49:35;;;;;;;13.35;8.75;;;;;;;5.14;84.07;101583.94;4967464;28;20451;-56
2023/01/07 03:52:00;;;;;;;14.13;7.72;;;;;;;5.17;83.79;101587.31;4969262;28;20075;-56
2023/01/07 03:54:26;;;;;;;13.18;7.70;;;;;;;5.18;83.89;101578.59;4973989;28;20125;-57
2023/01/07 03:56:51;;;;;;;16.20;8.32;;;;;;;5.18;83.99;101570.78;4969939;28;20114;-54
2023/01/07 03:59:17;;;;;;;11.90;7.45;;;;;;;5.16;83.82;101576.91;4970222;28;20095;-53
2023/01/07 04:01:42;;;;;;;13.23;8.98;;;;;;;5.10;83.40;101569.22;4970551;28;20543;-54
2023/01/07 04:04:08;;;;;;;14.77;7.80;;;;;;;5.05;83.71;101571.94;4967167;28;20094;-54
2023/01/07 04:06:33;;;;;;;17.77;9.77;;;;;;;4.96;83.80;101562.56;4968446;28;20099;-54
2023/01/07 04:08:59;;;;;;;17.20;8.00;;;;;;;4.88;83.50;101567.06;4969610;28;20075;-58
2023/01/07 04:11:24;;;;;;;14.45;8.52;;;;;;;4.85;83.96;101564.50;4971317;28;20434;-55
2023/01/07 04:13:50;;;;;;;16.27;9.10;;;;;;;4.81;84.02;101561.13;4967274;28;20095;-56
2023/01/07 04:16:15;;;;;;;13.05;8.55;;;;;;;4.80;84.27;101569.81;4971332;28;20075;-57
2023/01/07 04:18:41;;;;;;;13.60;7.55;;;;;;;4.79;83.81;101562.88;4972016;28;20099;-55
2023/01/07 04:21:06;;;;;;;13.88;7.38;;;;;;;4.80;83.64;101555.94;4967892;28;20079;-58
2023/01/07 04:23:32;;;;;;;13.68;8.00;;;;;;;4.76;83.37;101562.97;4966218;28;20099;-56
2023/01/07 04:25:58;;;;;;;11.85;7.13;;;;;;;4.75;83.28;101561.25;4972844;28;20087;-55
2023/01/07 04:28:23;;;;;;;13.45;7.35;;;;;;;4.76;83.30;101562.97;4973598;28;20067;-54
2023/01/07 04:30:49;;;;;;;14.27;8.23;;;;;;;4.77;82.94;101563.81;4966967;28;20111;-55
2023/01/07 04:33:15;;;;;;;19.80;8.35;;;;;;;4.79;83.01;101559.44;4968912;28;20121;-54
2023/01/07 04:35:40;;;;;;;13.50;8.27;;;;;;;4.75;82.81;101558.66;4968961;28;20094;-54
2023/01/07 04:38:06;;;;;;;13.00;7.85;;;;;;;4.68;82.56;101568.34;4969142;28;20099;-59
2023/01/07 04:40:32;;;;;;;12.55;7.55;;;;;;;4.60;83.23;101572.00;4967543;28;20082;-55
2023/01/07 04:42:57;;;;;;;13.65;7.28;;;;;;;4.52;83.25;101565.16;4970977;28;20103;-55
2023/01/07 04:45:23;;;;;;;13.23;6.63;;;;;;;4.46;82.98;101561.81;4971142;28;20098;-56
2023/01/07 04:47:49;;;;;;;12.45;7.10;;;;;;;4.41;83.37;101551.47;4968222;28;20107;-58
2023/01/07 04:50:15;;;;;;;12.77;6.18;;;;;;;4.37;83.17;101563.72;4970988;28;20498;-58
2023/01/07 04:52:40;;;;;;;11.27;6.85;;;;;;;4.32;83.64;101555.13;4968306;28;20103;-58
2023/01/07 04:55:06;;;;;;;9.00;5.50;;;;;;;4.32;83.43;101554.25;4969293;28;20119;-57
2023/01/07 04:57:32;;;;;;;25.42;5.65;;;;;;;4.35;83.42;101562.88;4967975;28;20095;-58
2023/01/07 04:59:57;;;;;;;7.95;4.75;;;;;;;4.36;83.34;101553.31;4969026;28;20080;-55
2023/01/07 05:02:23;;;;;;;9.52;5.30;;;;;;;4.33;83.22;101553.34;4973523;28;20099;-57
2023/01/07 05:04:48;;;;;;;9.40;5.97;;;;;;;4.34;82.96;101553.34;4970148;28;20079;-55
2023/01/07 05:07:14;;;;;;;16.08;7.63;;;;;;;4.35;83.25;101556.78;4968907;28;20562;-55
2023/01/07 05:09:39;;;;;;;14.93;8.88;;;;;;;4.32;83.02;101551.63;4975241;28;20091;-53
2023/01/07 05:12:05;;;;;;;13.75;7.00;;;;;;;4.28;83.00;101545.63;4976089;28;20077;-58
2023/01/07 05:14:30;;;;;;;12.63;7.20;;;;;;;4.20;82.98;101543.16;4972139;28;20431;-57
2023/01/07 05:16:55;;;;;;;11.30;6.63;;;;;;;4.14;82.89;101540.69;4969020;28;20095;-54
2023/01/07 05:19:21;;;;;;;12.10;5.95;;;;;;;4.12;83.15;101545.06;4969577;28;20071;-57
2023/01/07 05:21:46;;;;;;;15.27;6.78;;;;;;;4.09;82.87;101547.72;4967241;28;20086;-57
2023/01/07 05:24:12;;;;;;;15.65;7.90;;;;;;;4.01;82.79;101537.44;4962197;28;20110;-58
2023/01/07 05:26:37;;;;;;;18.10;8.38;;;;;;;3.93;82.85;101537.56;4972941;28;20093;-55
2023/01/07 05:29:03;;;;;;;67.57;10.57;;;;;;;3.86;82.82;101538.53;4971268;28;20075;-57
2023/01/07 05:31:28;;;;;;;21.92;7.95;;;;;;;3.82;83.04;101539.50;4971999;28;20094;-56
2023/01/07 05:33:54;;;;;;;22.13;8.55;;;;;;;3.81;83.39;101540.38;4971644;28;20103;-57
2023/01/07 05:36:19;;;;;;;17.52;8.02;;;;;;;3.77;83.04;101536.97;4974940;28;20442;-57
2023/01/07 05:38:45;;;;;;;16.13;7.68;;;;;;;3.77;83.28;101529.16;4971325;28;20194;-55
2023/01/07 05:41:10;;;;;;;24.17;8.02;;;;;;;3.79;82.94;101518.72;4970266;28;20071;-54
2023/01/07 05:43:36;;;;;;;17.23;8.15;;;;;;;3.76;82.51;101510.94;4974307;28;20098;-58
2023/01/07 05:46:01;;;;;;;18.98;9.60;;;;;;;3.72;82.81;101509.28;4969643;28;20080;-55
2023/01/07 05:48:27;;;;;;;16.40;8.95;;;;;;;3.70;82.75;101518.88;4971586;28;20079;-55
2023/01/07 05:50:52;;;;;;;25.13;9.75;;;;;;;3.68;82.83;101518.88;4970750;28;20114;-54
2023/01/07 05:53:18;;;;;;;18.52;8.93;;;;;;;3.69;83.03;101501.53;4972737;28;20178;-52
2023/01/07 05:55:43;;;;;;;16.35;8.77;;;;;;;3.71;83.07;101510.16;4968400;28;20094;-54
2023/01/07 05:58:09;;;;;;;22.05;8.20;;;;;;;3.68;82.70;101521.50;4972849;28;20084;-55
2023/01/07 06:00:35;;;;;;;37.75;10.43;;;;;;;3.62;82.77;101527.66;4972263;28;20087;-58
2023/01/07 06:03:01;;;;;;;26.58;9.75;;;;;;;3.58;83.00;101536.41;4968482;28;20496;-55
2023/01/07 06:05:26;;;;;;;21.60;9.88;;;;;;;3.62;83.09;101539.81;4974050;28;20102;-58
2023/01/07 06:07:52;;;;;;;18.73;9.60;;;;;;;3.60;83.06;101516.41;4971575;28;20099;-56
2023/01/07 06:10:17;;;;;;;26.15;9.07;;;;;;;3.60;83.22;101511.22;4974963;28;20111;-52
2023/01/07 06:12:43;;;;;;;27.08;9.85;;;;;;;3.58;83.11;101505.16;4966376;28;20161;-58
2023/01/07 06:15:09;;;;;;;26.60;10.02;;;;;;;3.58;82.96;101502.56;4969042;28;20087;-55
2023/01/07 06:17:34;;;;;;;22.70;9.70;;;;;;;3.60;83.26;101524.22;4961462;28;20123;-56
2023/01/07 06:20:00;;;;;;;44.35;9.57;;;;;;;3.58;83.05;101523.38;4971259;28;20078;-55
2023/01/07 06:22:25;;;;;;;25.73;9.18;;;;;;;3.63;83.13;101531.97;4969204;28;20083;-56
2023/01/07 06:24:51;;;;;;;18.45;8.13;;;;;;;3.69;83.21;101524.97;4972710;28;20158;-56
2023/01/07 06:27:16;;;;;;;15.50;7.50;;;;;;;3.75;83.42;101524.84;4972148;28;20443;-57
2023/01/07 06:29:42;;;;;;;16.40;7.85;;;;;;;3.84;83.10;101519.50;4972110;28;20075;-54
2023/01/07 06:32:08;;;;;;;13.88;7.00;;;;;;;3.94;83.19;101520.19;4972248;28;20083;-57
2023/01/07 06:34:33;;;;;;;15.68;7.78;;;;;;;4.03;82.82;101519.16;4971152;28;20098;-56
2023/01/07 06:36:59;;;;;;;13.95;7.32;;;;;;;4.10;82.43;101520.78;4967705;28;20107;-58
2023/01/07 06:39:24;;;;;;;16.08;8.63;;;;;;;4.14;82.22;101517.25;4970973;28;20071;-54
2023/01/07 06:41:50;;;;;;;16.85;9.88;;;;;;;4.21;82.33;101518.00;4973874;28;20166;-56
2023/01/07 06:44:15;;;;;;;19.88;10.07;;;;;;;4.22;82.38;101530.13;4969574;28;20091;-57
2023/01/07 06:46:41;;;;;;;20.48;9.55;;;;;;;4.25;82.39;101524.84;4971772;28;20486;-55
2023/01/07 06:49:06;;;;;;;18.63;9.10;;;;;;;4.28;82.48;101530.00;4972177;28;20181;-55
2023/01/07 06:51:32;;;;;;;19.15;10.38;;;;;;;4.33;82.67;101532.50;4967786;28;20090;-58
2023/01/07 06:53:57;;;;;;;24.40;12.32;;;;;;;4.40;82.40;101539.34;4974227;28;20095;-56
2023/01/07 06:56:22;;;;;;;17.33;9.35;;;;;;;4.48;82.37;101542.63;4971248;28;20095;-55
2023/01/07 06:58:48;;;;;;;17.58;9.73;;;;;;;4.56;82.78;101551.19;4971623;28;20495;-53
2023/01/07 07:01:13;;;;;;;20.35;10.15;;;;;;;4.65;82.52;101539.72;4969090;28;20130;-54
2023/01/07 07:03:39;;;;;;;22.35;11.40;;;;;;;4.72;82.29;101541.28;4973903;28;20103;-58
2023/01/07 07:06:05;;;;;;;11.95;6.57;;;;;;;4.78;82.67;101545.53;4965061;28;20088;-54
2023/01/07 07:08:30;;;;;;;24.08;10.82;;;;;;;4.87;82.65;101539.25;4968596;28;20087;-54
2023/01/07 07:10:56;;;;;;;22.10;11.63;;;;;;;4.94;82.21;101537.38;4970091;28;20071;-55
2023/01/07 07:13:21;;;;;;;24.70;12.98;;;;;;;5.00;82.17;101545.09;4970276;28;20091;-53
2023/01/07 07:15:48;;;;;;;22.00;10.88;;;;;;;5.04;82.15;101536.31;4967231;28;20174;-53
2023/01/07 07:18:14;;;;;;;25.38;11.73;;;;;;;5.04;81.88;101533.69;4969474;28;20122;-56
2023/01/07 07:20:40;;;;;;;18.30;10.07;;;;;;;4.98;81.67;101532.09;4964027;28;20102;-55
2023/01/07 07:23:05;;;;;;;14.40;7.05;;;;;;;4.95;81.63;101536.50;4967660;28;20575;-52
2023/01/07 07:25:31;;;;;;;15.02;7.38;;;;;;;4.95;82.03;101539.09;4968377;28;20549;-56
2023/01/07 07:27:56;;;;;;;12.68;6.78;;;;;;;4.95;81.87;101529.53;4969331;28;20097;-55
2023/01/07 07:30:21;;;;;;;11.95;7.63;;;;;;;4.95;81.60;101537.38;4966485;28;20083;-56
2023/01/07 07:32:47;;;;;;;10.40;6.38;;;;;;;4.91;81.21;101540.06;4972519;28;20490;-57
2023/01/07 07:35:12;;;;;;;11.85;6.18;;;;;;;4.88;81.10;101541.84;4964442;28;20214;-58
2023/01/07 07:37:38;;;;;;;13.48;6.43;;;;;;;4.86;81.43;101533.19;4970668;28;20276;-56
2023/01/07 07:40:05;;;;;;;10.52;5.55;;;;;;;4.85;81.13;101541.03;4968922;28;20075;-56
2023/01/07 07:42:31;;;;;;;10.15;6.72;;;;;;;4.82;81.13;101547.19;4971479;28;20622;-55
2023/01/07 07:44:56;;;;;;;13.73;7.13;;;;;;;4.79;81.03;101544.63;4970203;28;20095;-57
2023/01/07 07:47:22;;;;;;;14.90;7.63;;;;;;;4.83;81.37;101540.25;4970382;28;20149;-55
2023/01/07 07:49:49;;;;;;;16.73;8.35;;;;;;;4.87;81.42;101541.88;4967457;28;20133;-57
2023/01/07 07:52:14;;;;;;;16.90;10.10;;;;;;;4.89;81.25;101542.69;4968650;28;20114;-55
2023/01/07 07:54:40;;;;;;;15.35;8.73;;;;;;;4.91;80.81;101545.28;4970395;28;20079;-56
2023/01/07 07:57:05;;;;;;;17.15;9.60;;;;;;;4.96;81.11;101544.31;4971117;28;20083;-53
2023/01/07 07:59:31;;;;;;;17.33;9.80;;;;;;;5.06;81.08;101541.47;4975196;28;20083;-56
2023/01/07 08:01:57;;;;;;;18.75;9.55;;;;;;;5.14;80.99;101548.25;4968438;28;20071;-53
2023/01/07 08:04:22;;;;;;;23.02;11.77;;;;;;;5.21;80.90;101537.69;4969118;28;20109;-55
2023/01/07 08:06:47;;;;;;;18.05;10.32;;;;;;;5.28;80.55;101539.25;4966108;28;20087;-55
2023/01/07 08:09:13;;;;;;;18.98;9.85;;;;;;;5.32;80.71;101539.13;4969916;28;20130;-55
2023/01/07 08:11:38;;;;;;;22.58;11.40;;;;;;;5.37;80.90;101533.81;4967041;28;20083;-55
2023/01/07 08:14:04;;;;;;;21.02;10.27;;;;;;;5.44;80.82;101530.19;4970990;28;20110;-55
2023/01/07 08:16:29;;;;;;;19.65;9.80;;;;;;;5.53;80.83;101523.00;4969627;28;20084;-55
2023/01/07 08:18:55;;;;;;;19.08;8.80;;;;;;;5.55;80.36;101518.59;4967271;28;20126;-57
2023/01/07 08:21:20;;;;;;;18.98;9.10;;;;;;;5.54;80.58;101511.66;4967118;28;20138;-58
2023/01/07 08:23:46;;;;;;;16.13;8.38;;;;;;;5.55;80.47;101516.00;4972267;28;20114;-56
2023/01/07 08:26:11;;;;;;;18.08;10.05;;;;;;;5.55;80.86;101506.44;4974485;28;20071;-53
2023/01/07 08:28:37;;;;;;;20.58;10.68;;;;;;;5.54;80.72;101507.31;4969348;28;20594;-52
2023/01/07 08:31:05;;;;;;;14.90;7.57;;;;;;;5.54;81.16;101514.28;4957728;28;20459;-52
2023/01/07 08:33:36;;;;;;;26.08;13.25;;;;;;;5.60;81.38;101515.00;4964968;28;20099;-53
2023/01/07 08:36:05;;;;;;;23.80;12.48;;;;;;;5.65;81.15;101512.28;4969117;28;20075;-53
2023/01/07 08:38:31;;;;;;;18.25;10.00;;;;;;;5.70;81.14;101515.63;4968753;28;20099;-55
2023/01/07 08:40:58;;;;;;;18.70;9.48;;;;;;;5.76;81.32;101502.41;4966179;28;20098;-53
2023/01/07 08:43:24;;;;;;;21.00;12.15;;;;;;;5.79;80.87;101512.78;4970497;28;20105;-54
2023/01/07 08:45:50;;;;;;;17.48;10.32;;;;;;;5.80;80.90;101516.25;4965863;28;20529;-58
2023/01/07 08:48:16;;;;;;;19.70;10.80;;;;;;;5.83;81.35;101518.78;4968165;28;20087;-55
2023/01/07 08:50:42;;;;;;;19.33;10.75;;;;;;;5.89;80.88;101512.56;4960309;28;20111;-59
2023/01/07 08:53:07;;;;;;;21.23;10.95;;;;;;;6.01;81.23;101524.47;4969232;28;20165;-56
2023/01/07 08:55:33;;;;;;;21.08;11.35;;;;;;;6.08;80.67;101511.22;4973675;28;20110;-59
2023/01/07 08:57:58;;;;;;;20.15;12.05;;;;;;;6.19;80.56;101515.28;4972905;28;20095;-55
2023/01/07 09:00:25;;;;;;;19.13;10.45;;;;;;;6.25;80.73;101507.28;4959995;28;20087;-56
2023/01/07 09:02:50;;;;;;;19.33;10.88;;;;;;;6.30;80.77;101518.47;4973419;28;20632;-55
2023/01/07 09:05:16;;;;;;;26.50;13.88;;;;;;;6.35;80.94;101524.44;4967800;28;20090;-58
2023/01/07 09:07:41;;;;;;;23.75;12.02;;;;;;;6.40;80.88;101532.13;4968635;28;20068;-52
2023/01/07 09:10:08;;;;;;;18.10;10.00;;;;;;;6.47;80.98;101524.97;4974765;28;20112;-56
2023/01/07 09:12:33;;;;;;;20.48;11.95;;;;;;;6.55;81.36;101525.63;4971578;28;20122;-56
2023/01/07 09:14:59;;;;;;;22.95;12.60;;;;;;;6.64;81.54;101530.59;4961176;28;20161;-54
2023/01/07 09:17:24;;;;;;;24.20;13.20;;;;;;;6.75;81.13;101524.19;4960148;28;20182;-53
2023/01/07 09:19:50;;;;;;;20.90;11.85;;;;;;;6.83;81.27;101528.28;4965537;28;20769;-55
2023/01/07 09:22:15;;;;;;;27.80;13.68;;;;;;;6.92;81.38;101528.94;4964759;28;20075;-56
2023/01/07 09:24:41;;;;;;;22.55;12.00;;;;;;;7.04;81.45;101528.56;4970999;28;20079;-56
2023/01/07 09:29:34;;;;;;;20.27;10.50;;;;;;;7.20;81.43;101525.47;4935093;28;20096;-54
2023/01/07 09:31:59;;;;;;;20.67;10.70;;;;;;;7.29;81.45;101528.69;4942921;28;20103;-60
2023/01/07 09:34:25;;;;;;;13.23;7.07;;;;;;;7.34;81.71;101525.91;4943932;28;20075;-59
2023/01/07 09:36:50;;;;;;;21.60;11.40;;;;;;;7.44;81.41;101521.25;4944561;28;20110;-60
2023/01/07 09:39:16;;;;;;;19.63;11.27;;;;;;;7.50;81.14;101521.03;4947118;28;20100;-62
2023/01/07 09:41:41;;;;;;;19.92;11.38;;;;;;;7.52;81.13;101521.81;4948645;28;20506;-59
2023/01/07 09:44:13;;;;;;;20.20;11.52;;;;;;;7.56;81.14;101526.06;4946502;28;20590;-57
2023/01/07 09:46:38;;;;;;;;;;;;;;;7.51;81.70;101522.72;4951778;28;20084;-55
2023/01/07 09:49:17;;;;;;;19.25;10.63;;;;;;;7.56;81.43;101520.84;4950909;28;19979;-56
2023/01/07 09:51:54;;;;;;;23.25;12.65;;;;;;;7.63;81.17;101517.13;4953915;28;20087;-54
2023/01/07 09:54:29;;;;;;;26.08;12.70;;;;;;;7.70;81.14;101501.19;4952479;28;20545;-57
2023/01/07 09:56:54;;;;;;;17.50;10.32;;;;;;;7.79;81.08;101500.84;4960475;28;20135;-58
2023/01/07 09:59:20;;;;;;;18.58;11.27;;;;;;;7.86;80.96;101497.13;4946271;28;20127;-57
2023/01/07 10:01:55;;;;;;;15.70;9.35;;;;;;;7.91;80.85;101491.72;4952035;28;20084;-58
2023/01/07 10:04:49;;;;;;;15.38;9.23;;;;;;;7.91;80.66;101495.22;4953382;28;20562;-56
2023/01/07 10:07:27;;;;;;;15.23;9.57;;;;;;;7.92;81.00;101486.47;4956657;28;20106;-57
2023/01/07 10:09:56;;;;;;;16.58;10.10;;;;;;;8.02;80.81;101494.00;4957103;28;20380;-56
2023/01/07 10:12:41;;;;;;;15.52;9.75;;;;;;;8.09;80.68;101482.41;4953873;28;20076;-57
2023/01/07 10:15:29;;;;;;;17.58;10.25;;;;;;;8.11;80.48;101470.06;4954609;28;20111;-58
2023/01/07 10:18:21;;;;;;;15.07;9.38;;;;;;;8.08;80.47;101464.94;4947628;28;20092;-59
2023/01/07 10:20:49;;;;;;;18.40;9.63;;;;;;;8.04;80.69;101468.59;4950759;28;20079;-58
2023/01/07 10:23:30;;;;;;;18.48;11.18;;;;;;;8.00;80.86;101467.84;4949482;28;20095;-57
2023/01/07 10:25:58;;;;;;;16.33;9.45;;;;;;;7.97;80.77;101472.31;4951259;28;20176;-57
2023/01/07 10:28:40;;;;;;;18.92;12.10;;;;;;;7.95;80.84;101469.75;4956661;28;20103;-55
2023/01/07 10:31:18;;;;;;;24.73;13.77;;;;;;;7.94;81.10;101468.88;4955916;28;20099;-56
2023/01/07 10:33:46;;;;;;;22.50;12.25;;;;;;;8.03;81.41;101469.50;4956763;28;20095;-56
2023/01/07 10:36:31;;;;;;;17.80;11.25;;;;;;;8.07;80.99;101458.00;4972474;28;20076;-56
2023/01/07 10:39:33;;;;;;;25.30;14.98;;;;;;;8.05;81.09;101454.56;4954013;28;20108;-58
2023/01/07 10:42:16;;;;;;;23.52;13.10;;;;;;;8.05;80.92;101446.72;4930585;28;20083;-59
2023/01/07 10:44:57;;;;;;;;;;;;;;;7.98;81.50;101453.94;4942006;28;20550;-59
2023/01/07 10:47:23;;;;;;;23.67;11.15;;;;;;;8.00;81.51;101446.00;4946726;28;19982;-57
2023/01/07 10:49:57;;;;;;;25.98;13.85;;;;;;;8.05;81.06;101444.09;4948852;28;20131;-56
2023/01/07 10:52:42;;;;;;;19.88;11.02;;;;;;;8.07;81.13;101452.75;4948153;28;20558;-55
2023/01/07 10:55:11;;;;;;;16.55;9.93;;;;;;;8.10;81.16;101455.25;4952044;28;20084;-60
2023/01/07 10:57:37;;;;;;;9.95;5.82;;;;;;;8.15;81.26;101453.31;4919788;28;20104;-57
2023/01/07 11:00:06;;;;;;;23.15;12.73;;;;;;;8.28;80.97;101451.13;4944559;28;20146;-54
2023/01/07 11:02:32;;;;;;;22.08;10.77;;;;;;;8.44;81.06;101451.38;4944128;28;20091;-56
2023/01/07 11:04:58;;;;;;;18.38;11.23;;;;;;;8.62;80.67;101456.88;4949299;28;20632;-57
2023/01/07 11:07:44;;;;;;;21.13;11.57;;;;;;;8.84;80.44;101452.53;4949153;28;20103;-57
2023/01/07 11:10:24;;;;;;;37.70;19.55;;;;;;;9.11;79.96;101447.09;4948275;28;20091;-57
2023/01/07 11:13:01;;;;;;;28.40;16.27;;;;;;;9.32;79.47;101447.13;4946960;28;20086;-55
2023/01/07 11:15:35;;;;;;;14.23;9.27;;;;;;;9.49;79.13;101442.94;4942512;28;20083;-55
2023/01/07 11:18:15;;;;;;;10.85;7.28;;;;;;;9.56;78.84;101432.13;4947533;28;20103;-56
2023/01/07 11:20:51;;;;;;;11.23;7.60;;;;;;;9.61;78.86;101435.41;4949234;28;20605;-55
2023/01/07 11:23:30;;;;;;;13.63;8.18;;;;;;;9.61;79.00;101424.03;4950213;28;20099;-56
2023/01/07 11:26:07;;;;;;;11.55;8.32;;;;;;;9.64;79.02;101428.31;4947965;28;20161;-56
2023/01/07 11:28:34;;;;;;;11.82;7.72;;;;;;;9.66;79.00;101427.31;4942286;28;20193;-55
2023/01/07 11:31:00;;;;;;;11.68;8.20;;;;;;;9.65;78.90;101425.63;4933324;28;20114;-55
2023/01/07 11:33:51;;;;;;;17.63;8.82;;;;;;;9.60;79.05;101422.34;4929156;28;20090;-59
2023/01/07 11:36:17;;;;;;;12.75;9.20;;;;;;;9.60;79.08;101422.34;4946518;28;20096;-56
2023/01/07 11:38:43;;;;;;;19.90;11.52;;;;;;;9.60;79.06;101417.09;4947198;28;20131;-55